Time;durP1;ratioP1;P1;durP2;ratioP2;P2;SDS_P1;SDS_P2;PMS_P1;PMS_P2;Temp;Humidity;BMP_temperature;BMP_pressure;BME280_temperature;BME280_humidity;BME280_pressure;Samples;Min_cycle;Max_cycle;Signal;HPM_P1;HPM_P2
2023/01/03 00:01:37;;;;;;;25.90;12.07;;;7.10;93.40;;;;;;9176138;19;20336;-70
2023/01/03 00:04:41;;;;;;;30.65;12.73;;;7.20;93.50;;;;;;9178379;19;20108;-70
2023/01/03 00:07:52;;;;;;;27.10;11.88;;;7.20;93.40;;;;;;9176943;19;20014;-70
2023/01/03 00:10:58;;;;;;;32.42;12.55;;;7.20;93.30;;;;;;9178202;19;20011;-71
2023/01/03 00:14:00;;;;;;;27.63;12.70;;;7.20;93.70;;;;;;9173562;19;20074;-71
2023/01/03 00:17:05;;;;;;;24.13;13.07;;;7.20;93.40;;;;;;9176157;19;20037;-70
2023/01/03 00:20:11;;;;;;;36.58;14.45;;;7.20;93.60;;;;;;9178046;19;20019;-71
2023/01/03 00:23:15;;;;;;;31.83;13.77;;;7.30;93.40;;;;;;9177716;19;20036;-71
2023/01/03 00:26:20;;;;;;;31.02;14.95;;;7.30;93.60;;;;;;9178066;19;20021;-71
2023/01/03 00:29:24;;;;;;;30.55;15.90;;;7.30;93.50;;;;;;9176747;19;20011;-70
2023/01/03 00:32:28;;;;;;;34.78;15.38;;;7.30;93.70;;;;;;9176146;19;20010;-71
2023/01/03 00:35:32;;;;;;;29.88;14.95;;;7.30;93.70;;;;;;9176981;19;20018;-70
2023/01/03 00:38:36;;;;;;;41.60;15.82;;;7.40;93.50;;;;;;9177437;19;20023;-71
2023/01/03 00:41:43;;;;;;;33.60;15.98;;;7.40;93.50;;;;;;9177170;19;20023;-70
2023/01/03 00:44:48;;;;;;;33.25;15.15;;;7.40;93.70;;;;;;9180563;19;20010;-72
2023/01/03 00:47:51;;;;;;;29.25;15.60;;;7.40;93.60;;;;;;9184483;19;20030;-72
2023/01/03 00:50:55;;;;;;;33.90;15.77;;;7.40;93.80;;;;;;9180142;19;20015;-69
2023/01/03 00:54:00;;;;;;;;;;;7.40;93.60;;;;;;9183829;19;20363;-72
2023/01/03 00:57:05;;;;;;;35.58;16.58;;;7.40;93.70;;;;;;9184890;19;19919;-71
2023/01/03 01:00:10;;;;;;;31.60;16.23;;;7.40;93.80;;;;;;9185267;19;20455;-71
2023/01/03 01:03:16;;;;;;;33.63;17.55;;;7.40;93.90;;;;;;9184331;19;20014;-72
2023/01/03 01:06:23;;;;;;;35.22;16.90;;;7.30;93.90;;;;;;9184556;19;20044;-71
2023/01/03 01:09:29;;;;;;;33.30;16.42;;;7.40;93.80;;;;;;9184740;19;20047;-69
2023/01/03 01:12:34;;;;;;;29.85;15.80;;;7.30;93.90;;;;;;9183279;19;20386;-72
2023/01/03 01:15:38;;;;;;;30.25;15.82;;;7.40;93.90;;;;;;9183493;19;20015;-68
2023/01/03 01:18:44;;;;;;;29.85;16.90;;;7.30;93.90;;;;;;9185053;19;20082;-72
2023/01/03 01:21:50;;;;;;;36.70;15.95;;;7.30;93.90;;;;;;9183788;19;20585;-72
2023/01/03 01:24:54;;;;;;;31.02;16.90;;;7.30;93.70;;;;;;9183558;19;20019;-71
2023/01/03 01:28:00;;;;;;;25.50;15.35;;;7.20;93.70;;;;;;9181507;19;20018;-71
2023/01/03 01:31:05;;;;;;;37.38;15.70;;;7.30;93.90;;;;;;9183585;19;20019;-69
2023/01/03 01:34:10;;;;;;;34.95;16.52;;;7.30;93.90;;;;;;9178860;19;20399;-69
2023/01/03 01:37:13;;;;;;;32.75;17.17;;;7.30;93.80;;;;;;9182932;19;20598;-71
2023/01/03 01:40:19;;;;;;;33.05;17.00;;;7.20;93.90;;;;;;9184024;19;20014;-71
2023/01/03 01:46:43;;;;;;;36.13;16.15;;;7.20;94.30;;;;;;9182224;19;20097;-71
2023/01/03 01:49:51;;;;;;;29.00;14.88;;;7.20;94.00;;;;;;9178071;19;20022;-70
2023/01/03 01:53:03;;;;;;;33.35;15.82;;;7.10;94.00;;;;;;9182305;19;20376;-70
2023/01/03 01:56:12;;;;;;;32.22;16.38;;;7.10;94.10;;;;;;9180037;19;20472;-71
2023/01/03 01:59:17;;;;;;;37.95;16.15;;;7.10;93.90;;;;;;9181909;19;20038;-71
2023/01/03 02:02:24;;;;;;;31.55;15.40;;;7.00;94.20;;;;;;9183012;19;20042;-72
2023/01/03 02:05:30;;;;;;;31.20;15.82;;;7.00;94.30;;;;;;9180308;19;20073;-71
2023/01/03 02:08:34;;;;;;;28.63;14.18;;;7.00;94.10;;;;;;9182214;19;20022;-70
2023/01/03 02:11:44;;;;;;;;;;;7.00;94.00;;;;;;9182471;19;20011;-69
2023/01/03 02:15:01;;;;;;;32.25;15.10;;;6.90;94.10;;;;;;9181599;19;19926;-70
2023/01/03 02:18:25;;;;;;;36.22;17.23;;;6.90;94.10;;;;;;9181670;19;20514;-71
2023/01/03 02:22:11;;;;;;;35.13;15.95;;;6.90;94.10;;;;;;9182043;19;20018;-70
2023/01/03 02:25:39;;;;;;;36.67;16.52;;;6.90;94.20;;;;;;9181478;19;20010;-71
2023/01/03 02:29:03;;;;;;;33.80;15.75;;;6.80;93.80;;;;;;9181085;19;20018;-69
2023/01/03 02:32:16;;;;;;;29.15;14.93;;;6.80;94.20;;;;;;9181122;19;20025;-70
2023/01/03 02:35:25;;;;;;;34.40;15.73;;;6.70;93.90;;;;;;9180290;19;20010;-68
2023/01/03 02:38:40;;;;;;;26.33;14.98;;;6.70;94.10;;;;;;9180600;19;20022;-69
2023/01/03 02:41:47;;;;;;;29.77;15.90;;;6.70;93.50;;;;;;9181784;19;20019;-71
2023/01/03 02:44:58;;;;;;;34.55;16.70;;;6.60;92.90;;;;;;9177807;19;20659;-68
2023/01/03 02:48:11;;;;;;;33.58;16.42;;;6.60;94.00;;;;;;9179740;19;20014;-71
2023/01/03 02:51:19;;;;;;;31.75;16.48;;;6.60;93.80;;;;;;9177209;19;20022;-71
2023/01/03 02:54:28;;;;;;;30.92;16.00;;;6.50;94.00;;;;;;9178000;19;20026;-69
2023/01/03 02:57:38;;;;;;;32.92;15.07;;;6.50;94.30;;;;;;9180527;19;20022;-71
2023/01/03 03:00:47;;;;;;;37.92;16.00;;;6.50;94.60;;;;;;9181173;19;20376;-69
2023/01/03 03:03:54;;;;;;;32.05;15.35;;;6.50;94.30;;;;;;9181081;19;20029;-69
2023/01/03 03:07:04;;;;;;;26.88;14.52;;;6.40;94.40;;;;;;9179817;19;20613;-71
2023/01/03 03:13:35;;;;;;;33.72;15.95;;;6.30;94.40;;;;;;9178917;19;20485;-71
2023/01/03 03:16:49;;;;;;;33.15;15.93;;;6.30;94.20;;;;;;9180046;19;20049;-71
2023/01/03 03:26:40;;;;;;;21.83;12.98;;;6.20;94.40;;;;;;9180077;19;20019;-71
2023/01/03 03:29:43;;;;;;;25.70;14.10;;;6.20;94.30;;;;;;9178997;19;20015;-70
2023/01/03 03:32:50;;;;;;;27.33;13.02;;;6.20;94.70;;;;;;9178302;19;20014;-70
2023/01/03 03:36:01;;;;;;;23.67;12.48;;;6.20;95.10;;;;;;9178326;19;20029;-70
2023/01/03 03:44:58;;;;;;;24.23;13.25;;;6.10;95.20;;;;;;9177935;19;20018;-71
2023/01/03 03:46:04;;;;;;;21.30;12.18;;;6.10;96.00;;;;;;9179375;19;20114;-71
2023/01/03 03:52:34;;;;;;;25.90;12.77;;;5.80;88.00;;;;;;9178064;19;20018;-71
2023/01/03 03:55:41;;;;;;;23.38;12.77;;;5.80;88.00;;;;;;9175869;19;20078;-70
2023/01/03 03:58:50;;;;;;;25.25;13.05;;;5.70;88.00;;;;;;9177639;19;20352;-70
2023/01/03 04:01:56;;;;;;;22.92;12.27;;;5.70;88.00;;;;;;9178223;19;20018;-70
2023/01/03 04:05:06;;;;;;;23.33;12.40;;;5.70;88.10;;;;;;9177552;19;20026;-70
2023/01/03 04:08:12;;;;;;;22.10;12.02;;;5.70;88.20;;;;;;9178080;19;20022;-71
2023/01/03 04:11:18;;;;;;;19.85;11.23;;;5.60;88.10;;;;;;9176680;19;20097;-70
2023/01/03 04:14:22;;;;;;;26.75;12.57;;;5.60;88.20;;;;;;9174985;19;20025;-70
2023/01/03 04:17:26;;;;;;;21.58;11.32;;;5.60;88.20;;;;;;9177632;19;20015;-69
2023/01/03 04:20:30;;;;;;;;;;;5.50;88.20;;;;;;9184609;19;20029;-69
2023/01/03 04:23:35;;;;;;;27.92;14.00;;;5.50;88.20;;;;;;9187033;19;19926;-71
2023/01/03 04:26:39;;;;;;;30.70;14.95;;;5.40;88.10;;;;;;9184374;19;20010;-70
2023/01/03 04:29:42;;;;;;;;;;;5.40;88.10;;;;;;9185992;19;20014;-71
2023/01/03 04:32:46;;;;;;;34.97;16.67;;;5.40;88.20;;;;;;9184401;19;19926;-71
2023/01/03 04:35:50;;;;;;;36.22;16.55;;;5.40;88.20;;;;;;9183686;19;20030;-72
2023/01/03 04:38:56;;;;;;;;;;;5.40;88.20;;;;;;9185365;19;20026;-69
2023/01/03 04:44:00;;;;;;;33.45;15.15;;;5.40;88.30;;;;;;9185921;19;19922;-72
2023/01/03 04:45:22;;;;;;;28.35;15.30;;;5.40;88.20;;;;;;9185434;19;20041;-71
2023/01/03 04:48:26;;;;;;;30.67;16.27;;;5.40;88.30;;;;;;9183803;19;20026;-71
2023/01/03 04:51:30;;;;;;;35.75;15.07;;;5.40;88.40;;;;;;9181089;19;20027;-72
2023/01/03 04:54:35;;;;;;;31.40;15.48;;;5.40;88.40;;;;;;9182669;19;20026;-73
2023/01/03 04:57:41;;;;;;;34.45;17.02;;;5.40;88.50;;;;;;9184833;19;20029;-71
2023/01/03 05:00:44;;;;;;;41.83;16.80;;;5.50;88.60;;;;;;9184393;19;20022;-71
2023/01/03 05:03:48;;;;;;;33.33;15.45;;;5.50;88.60;;;;;;9184465;19;20023;-72
2023/01/03 05:06:53;;;;;;;;;;;5.50;88.60;;;;;;9184703;19;20022;-70
2023/01/03 05:09:58;;;;;;;;;;;5.50;88.70;;;;;;9185865;19;19943;-70
2023/01/03 05:13:02;;;;;;;35.90;16.63;;;5.50;88.50;;;;;;9182973;19;19930;-70
2023/01/03 05:16:07;;;;;;;36.83;17.83;;;5.50;88.50;;;;;;9184625;19;20026;-71
2023/01/03 05:19:11;;;;;;;37.40;18.75;;;5.60;88.60;;;;;;9184025;19;20026;-70
2023/01/03 05:28:55;;;;;;;51.75;20.92;;;5.60;88.70;;;;;;9182950;19;20022;-70
2023/01/03 05:31:59;;;;;;;41.85;19.80;;;5.70;89.40;;;;;;9182739;19;20010;-70
2023/01/03 05:35:02;;;;;;;;;;;5.70;88.80;;;;;;9183764;19;20359;-69
2023/01/03 05:38:06;;;;;;;42.00;21.48;;;5.70;88.80;;;;;;9183747;19;19934;-70
2023/01/03 05:41:58;;;;;;;44.33;21.52;;;5.80;88.70;;;;;;9183423;19;20026;-72
2023/01/03 05:44:38;;;;;;;52.00;22.60;;;5.80;88.80;;;;;;9182601;19;20014;-71
2023/01/03 05:47:41;;;;;;;56.97;22.77;;;5.80;88.80;;;;;;9182809;19;20011;-71
2023/01/03 05:50:45;;;;;;;44.22;22.73;;;5.90;88.90;;;;;;9178795;19;20010;-71
2023/01/03 05:53:49;;;;;;;;;;;5.90;88.90;;;;;;9180586;19;20011;-71
2023/01/03 05:56:54;;;;;;;45.65;22.83;;;5.90;88.90;;;;;;9182670;19;19922;-71
2023/01/03 05:59:58;;;;;;;50.38;24.15;;;6.00;88.80;;;;;;9182866;19;20499;-70
2023/01/03 06:03:02;;;;;;;48.13;22.98;;;6.00;88.90;;;;;;9182559;19;20011;-72
2023/01/03 06:06:08;;;;;;;;;;;6.00;88.90;;;;;;9182694;19;20046;-71
2023/01/03 06:09:12;;;;;;;47.40;23.38;;;6.10;89.00;;;;;;9180721;19;19915;-71
2023/01/03 06:12:18;;;;;;;52.97;23.90;;;6.10;88.90;;;;;;9182585;19;20031;-71
2023/01/03 06:15:22;;;;;;;51.55;24.50;;;6.10;88.90;;;;;;9180368;19;20505;-70
2023/01/03 06:18:23;;;;;;;;;;;6.10;89.00;;;;;;9183041;19;20045;-70
2023/01/03 06:21:27;;;;;;;47.40;22.30;;;6.20;89.00;;;;;;9181618;19;20007;-71
2023/01/03 06:24:31;;;;;;;44.95;22.67;;;6.20;88.80;;;;;;9180356;19;20079;-68
2023/01/03 06:27:37;;;;;;;42.42;23.05;;;6.20;88.90;;;;;;9180490;19;20057;-72
2023/01/03 06:30:41;;;;;;;46.10;22.17;;;6.20;89.00;;;;;;9180387;19;20014;-70
2023/01/03 06:33:45;;;;;;;39.75;19.63;;;6.20;89.00;;;;;;9180515;19;20025;-72
2023/01/03 06:36:48;;;;;;;;;;;6.20;89.00;;;;;;9181759;19;20010;-69
2023/01/03 06:39:52;;;;;;;48.60;20.92;;;6.20;89.00;;;;;;9181284;19;19933;-70
2023/01/03 06:42:58;;;;;;;46.47;21.27;;;6.20;88.80;;;;;;9178468;19;20010;-70
2023/01/03 06:55:53;;;;;;;45.75;22.25;;;6.20;88.90;;;;;;9180843;19;20340;-71
2023/01/03 06:59:03;;;;;;;48.35;23.17;;;6.30;89.00;;;;;;9178743;19;20010;-71
2023/01/03 07:02:06;;;;;;;47.40;22.80;;;6.30;89.00;;;;;;9180081;19;20018;-70
2023/01/03 07:05:10;;;;;;;;;;;6.30;89.10;;;;;;9181090;19;20039;-69
2023/01/03 07:08:14;;;;;;;49.13;23.30;;;6.30;89.10;;;;;;9179655;19;19918;-71
2023/01/03 07:11:18;;;;;;;45.15;23.70;;;6.30;88.90;;;;;;9178120;19;20015;-72
2023/01/03 07:14:23;;;;;;;50.53;23.52;;;6.30;89.00;;;;;;9169198;19;20022;-70
2023/01/03 07:17:27;;;;;;;59.00;23.73;;;6.30;89.10;;;;;;9172741;19;20042;-71
2023/01/03 07:20:31;;;;;;;53.40;24.80;;;6.30;89.10;;;;;;9173503;19;20086;-70
2023/01/03 07:23:35;;;;;;;64.00;26.05;;;6.30;89.20;;;;;;9175581;19;20049;-72
2023/01/03 07:26:39;;;;;;;58.22;25.25;;;6.30;89.20;;;;;;9178279;19;20011;-70
2023/01/03 07:29:44;;;;;;;67.68;26.70;;;6.30;89.20;;;;;;9178030;19;20022;-72
2023/01/03 07:32:48;;;;;;;57.03;25.13;;;6.40;89.20;;;;;;9178194;19;20115;-72
2023/01/03 07:35:52;;;;;;;63.72;26.58;;;6.40;89.20;;;;;;9177536;19;20444;-71
2023/01/03 07:38:56;;;;;;;;;;;6.40;89.30;;;;;;9180377;19;20021;-70
2023/01/03 07:45:20;;;;;;;55.67;26.83;;;6.40;89.20;;;;;;9174993;19;20064;-69
2023/01/03 07:48:23;;;;;;;62.08;27.13;;;6.40;89.20;;;;;;9175977;19;20014;-69
2023/01/03 07:51:27;;;;;;;58.80;26.98;;;6.40;89.20;;;;;;9174943;19;20015;-71
2023/01/03 07:54:31;;;;;;;69.45;29.33;;;6.40;89.20;;;;;;9171753;19;20910;-70
2023/01/03 07:57:35;;;;;;;67.68;29.08;;;6.50;89.30;;;;;;9177831;19;20047;-70
2023/01/03 08:00:40;;;;;;;;;;;6.50;89.30;;;;;;9179984;19;20121;-70
2023/01/03 08:03:45;;;;;;;62.30;26.13;;;6.50;89.40;;;;;;9175994;19;19923;-72
2023/01/03 08:06:48;;;;;;;59.08;26.67;;;6.50;89.20;;;;;;9172460;19;20035;-71
2023/01/03 08:13:19;;;;;;;55.72;26.35;;;6.50;89.20;;;;;;9171104;19;20551;-72
2023/01/03 08:16:25;;;;;;;56.50;25.92;;;6.50;89.20;;;;;;9177545;19;20018;-71
2023/01/03 08:19:29;;;;;;;58.72;27.17;;;6.50;89.20;;;;;;9176933;19;20094;-71
2023/01/03 08:22:33;;;;;;;60.80;28.15;;;6.50;89.30;;;;;;9176659;19;20015;-71
2023/01/03 08:25:36;;;;;;;51.60;26.48;;;6.50;89.30;;;;;;9168010;19;20026;-71
2023/01/03 08:28:41;;;;;;;;;;;6.50;89.30;;;;;;9166360;19;20754;-70
2023/01/03 08:31:50;;;;;;;57.75;28.02;;;6.50;89.30;;;;;;9166618;19;19926;-69
2023/01/03 08:34:54;;;;;;;59.20;29.95;;;6.60;89.20;;;;;;9162656;19;20372;-70
2023/01/03 08:37:59;;;;;;;;;;;6.60;89.20;;;;;;9171511;19;20127;-71
2023/01/03 08:41:04;;;;;;;;;;;6.50;89.30;;;;;;9177838;19;19919;-71
2023/01/03 08:44:10;;;;;;;54.60;25.83;;;6.50;89.10;;;;;;9176591;19;19922;-70
2023/01/03 08:47:16;;;;;;;57.20;25.33;;;6.50;89.00;;;;;;9177048;19;20015;-71
2023/01/03 08:50:21;;;;;;;51.78;25.83;;;6.50;89.10;;;;;;9173103;19;20010;-71
2023/01/03 08:53:27;;;;;;;49.33;25.35;;;6.50;89.30;;;;;;9174573;19;20010;-70
2023/01/03 08:56:31;;;;;;;47.35;26.08;;;6.50;89.30;;;;;;9176822;19;20741;-71
2023/01/03 08:59:35;;;;;;;56.50;27.00;;;6.50;89.30;;;;;;9175040;19;20486;-70
2023/01/03 09:02:40;;;;;;;52.40;27.88;;;6.50;89.30;;;;;;9171901;19;20026;-70
2023/01/03 09:05:44;;;;;;;57.83;28.25;;;6.50;89.30;;;;;;9174147;19;20020;-70
2023/01/03 09:08:48;;;;;;;55.08;26.90;;;6.60;89.30;;;;;;9174481;19;20031;-71
2023/01/03 09:11:52;;;;;;;50.17;24.08;;;6.60;89.40;;;;;;9177852;19;20790;-71
2023/01/03 09:14:56;;;;;;;42.88;22.42;;;6.60;89.40;;;;;;9169704;19;20027;-71
2023/01/03 09:18:01;;;;;;;48.03;23.42;;;6.60;89.40;;;;;;9174240;19;20019;-70
2023/01/03 09:21:06;;;;;;;48.40;23.83;;;6.60;89.40;;;;;;9175113;19;20003;-70
2023/01/03 09:24:10;;;;;;;45.22;21.73;;;6.60;89.40;;;;;;9178754;19;20019;-71
2023/01/03 09:27:14;;;;;;;42.35;22.35;;;6.60;89.50;;;;;;9179026;19;20031;-69
2023/01/03 09:30:19;;;;;;;46.70;21.98;;;6.60;89.80;;;;;;9182911;19;20021;-71
2023/01/03 09:33:25;;;;;;;49.22;22.60;;;6.60;89.50;;;;;;9178188;19;20027;-71
2023/01/03 09:36:29;;;;;;;40.20;20.88;;;6.60;89.40;;;;;;9175917;19;20022;-70
2023/01/03 09:39:32;;;;;;;44.85;21.83;;;6.70;89.50;;;;;;9175664;19;20018;-71
2023/01/03 09:45:57;;;;;;;39.65;20.63;;;6.70;89.50;;;;;;9172263;19;20011;-69
2023/01/03 09:49:05;;;;;;;35.58;17.98;;;6.70;89.60;;;;;;9168972;19;20437;-71
2023/01/03 10:06:15;;;;;;;31.48;13.93;;;6.80;89.70;;;;;;9172131;19;20030;-72
2023/01/03 10:09:33;;;;;;;28.55;13.02;;;6.80;89.70;;;;;;9173547;19;20015;-69
2023/01/03 10:12:44;;;;;;;30.10;12.05;;;6.80;89.70;;;;;;9171940;19;20367;-70
2023/01/03 10:15:55;;;;;;;24.45;11.38;;;6.90;89.80;;;;;;9174589;19;20031;-72
2023/01/03 10:19:17;;;;;;;26.70;12.20;;;6.90;89.80;;;;;;9170326;19;20046;-71
2023/01/03 10:22:27;;;;;;;24.58;11.73;;;6.90;89.90;;;;;;9173815;19;20022;-71
2023/01/03 10:25:31;;;;;;;22.00;10.85;;;7.00;89.90;;;;;;9172719;19;20082;-71
2023/01/03 10:28:36;;;;;;;;;;;7.00;89.90;;;;;;9176258;19;20022;-70
2023/01/03 10:31:54;;;;;;;21.55;10.88;;;7.00;89.90;;;;;;9173772;19;19930;-71
2023/01/03 10:35:18;;;;;;;20.83;10.23;;;7.10;89.80;;;;;;9169260;19;20094;-72
2023/01/03 10:38:24;;;;;;;19.85;9.80;;;7.10;89.90;;;;;;9172277;19;20022;-72
2023/01/03 10:41:34;;;;;;;19.90;9.50;;;7.10;89.90;;;;;;9172352;19;20019;-71
2023/01/03 10:44:38;;;;;;;19.15;8.25;;;7.20;90.00;;;;;;9172184;19;20021;-71
2023/01/03 10:47:42;;;;;;;28.75;9.80;;;7.20;89.90;;;;;;9172181;19;20498;-71
2023/01/03 10:50:46;;;;;;;16.95;8.88;;;7.30;90.00;;;;;;9167627;19;20018;-70
2023/01/03 10:53:53;;;;;;;;;;;7.30;90.00;;;;;;9166962;19;20025;-71
2023/01/03 10:56:57;;;;;;;12.93;7.90;;;7.30;90.00;;;;;;9167688;19;19922;-71
2023/01/03 11:00:00;;;;;;;;;;;7.40;89.90;;;;;;9170797;19;20014;-72
2023/01/03 11:03:14;;;;;;;20.27;8.47;;;7.40;90.00;;;;;;9173495;19;19946;-72
2023/01/03 11:06:18;;;;;;;21.13;8.90;;;7.40;90.20;;;;;;9169558;19;20007;-68
2023/01/03 11:09:24;;;;;;;17.65;9.40;;;7.50;90.00;;;;;;9167883;19;20057;-71
2023/01/03 11:12:34;;;;;;;18.27;7.82;;;7.50;90.00;;;;;;9172911;19;20018;-69
2023/01/03 11:15:39;;;;;;;16.30;8.40;;;7.50;90.00;;;;;;9167616;19;20023;-70
2023/01/03 11:18:44;;;;;;;23.02;8.05;;;7.60;90.00;;;;;;9176741;19;20021;-72
2023/01/03 11:21:54;;;;;;;18.33;9.95;;;7.60;90.00;;;;;;9171320;19;20471;-71
2023/01/03 11:25:16;;;;;;;18.48;8.60;;;7.60;90.00;;;;;;9174594;19;20023;-70
2023/01/03 11:28:51;;;;;;;20.83;8.13;;;7.70;90.10;;;;;;9167201;19;20362;-71
2023/01/03 11:32:02;;;;;;;15.60;8.00;;;7.70;90.10;;;;;;9171679;19;20018;-71
2023/01/03 11:35:33;;;;;;;18.10;8.27;;;7.80;90.10;;;;;;9168553;19;20018;-72
2023/01/03 11:38:48;;;;;;;19.35;8.73;;;7.80;90.10;;;;;;9169971;19;20023;-71
2023/01/03 11:42:22;;;;;;;17.30;7.90;;;7.80;90.00;;;;;;9172767;19;20014;-71
2023/01/03 11:46:00;;;;;;;23.58;9.48;;;7.90;90.10;;;;;;9172831;19;20018;-72
2023/01/03 11:49:19;;;;;;;18.83;8.35;;;7.90;90.10;;;;;;9162121;19;20019;-69
2023/01/03 11:52:30;;;;;;;21.17;9.02;;;7.90;90.00;;;;;;9170377;19;20026;-71
2023/01/03 11:55:56;;;;;;;22.10;8.10;;;8.00;90.10;;;;;;9165180;19;20018;-70
2023/01/03 11:59:19;;;;;;;16.45;7.70;;;8.00;90.10;;;;;;9172103;19;20025;-73
2023/01/03 12:02:56;;;;;;;17.52;7.70;;;8.00;90.10;;;;;;9173003;19;20018;-70
2023/01/03 12:06:07;;;;;;;16.27;8.32;;;8.00;90.10;;;;;;9171102;19;20018;-72
2023/01/03 12:09:21;;;;;;;22.10;8.05;;;8.00;90.10;;;;;;9172460;19;20026;-73
2023/01/03 12:12:44;;;;;;;17.95;8.60;;;8.10;90.10;;;;;;9169877;19;20014;-70
2023/01/03 12:15:55;;;;;;;16.20;7.43;;;8.10;90.10;;;;;;9166336;19;20014;-71
2023/01/03 12:19:03;;;;;;;12.43;7.10;;;8.10;90.10;;;;;;9168982;19;20028;-72
2023/01/03 12:22:23;;;;;;;16.02;7.03;;;8.10;90.10;;;;;;9166911;19;20030;-72
2023/01/03 12:25:31;;;;;;;14.20;7.28;;;8.20;90.10;;;;;;9167090;19;20019;-70
2023/01/03 12:28:40;;;;;;;11.65;7.10;;;8.20;90.40;;;;;;9168647;19;20329;-72
2023/01/03 12:31:51;;;;;;;15.88;7.82;;;8.20;90.10;;;;;;9176277;19;20015;-73
2023/01/03 12:35:23;;;;;;;12.30;6.70;;;8.20;90.10;;;;;;9174435;19;20050;-74
2023/01/03 12:38:31;;;;;;;15.88;6.50;;;8.30;90.10;;;;;;9171562;19;20019;-70
2023/01/03 12:41:42;;;;;;;11.75;6.43;;;8.30;90.10;;;;;;9175032;19;20018;-69
2023/01/03 12:44:47;;;;;;;10.25;5.70;;;8.30;90.10;;;;;;9178075;19;20018;-73
2023/01/03 12:47:58;;;;;;;11.77;6.30;;;8.30;90.10;;;;;;9168006;19;20054;-70
2023/01/03 12:51:02;;;;;;;10.55;6.13;;;8.30;90.10;;;;;;9169516;19;20018;-73
2023/01/03 12:54:18;;;;;;;;;;;8.30;90.10;;;;;;9171036;19;20025;-69
2023/01/03 12:57:45;;;;;;;12.77;6.53;;;8.40;90.10;;;;;;9168750;19;20260;-72
2023/01/03 13:00:59;;;;;;;18.20;6.85;;;8.40;90.10;;;;;;9170559;19;20387;-71
2023/01/03 13:04:09;;;;;;;;;;;8.40;90.10;;;;;;9170029;19;20038;-72
2023/01/03 13:07:17;;;;;;;14.20;6.85;;;8.40;90.10;;;;;;9170693;19;19927;-74
2023/01/03 13:10:30;;;;;;;11.45;7.05;;;8.40;90.10;;;;;;9168158;19;20007;-71
2023/01/03 13:13:35;;;;;;;16.73;7.43;;;8.40;90.10;;;;;;9168202;19;20018;-72
2023/01/03 13:16:43;;;;;;;14.43;6.50;;;8.50;90.10;;;;;;9172951;19;20035;-72
2023/01/03 13:19:58;;;;;;;16.50;7.47;;;8.50;90.10;;;;;;9170106;19;20019;-70
2023/01/03 13:23:01;;;;;;;;;;;8.50;90.10;;;;;;9170301;19;20110;-74
2023/01/03 13:26:24;;;;;;;18.80;6.93;;;8.50;90.10;;;;;;9168942;19;19951;-72
2023/01/03 13:29:55;;;;;;;16.63;6.60;;;8.60;90.10;;;;;;9168547;19;20022;-74
2023/01/03 13:33:16;;;;;;;14.77;6.68;;;8.60;90.10;;;;;;9171276;19;20019;-70
2023/01/03 13:36:22;;;;;;;17.80;6.93;;;8.60;90.10;;;;;;9173410;19;20015;-73
2023/01/03 13:39:41;;;;;;;12.15;6.63;;;8.60;90.10;;;;;;9173258;19;20732;-73
2023/01/03 13:42:45;;;;;;;12.77;6.82;;;8.60;90.10;;;;;;9167794;19;20483;-73
2023/01/03 13:46:01;;;;;;;12.15;6.38;;;8.60;90.10;;;;;;9170865;19;20015;-69
2023/01/03 13:49:07;;;;;;;13.27;6.50;;;8.70;90.20;;;;;;9165605;19;20058;-72
2023/01/03 13:52:39;;;;;;;16.85;6.70;;;8.70;90.10;;;;;;9174281;19;20052;-70
2023/01/03 13:55:47;;;;;;;14.35;6.75;;;8.70;90.20;;;;;;9165642;19;20019;-69
2023/01/03 13:59:08;;;;;;;18.08;7.03;;;8.70;90.10;;;;;;9166256;19;21034;-69
2023/01/03 14:02:50;;;;;;;11.60;6.43;;;8.70;90.10;;;;;;9165087;19;20034;-72
2023/01/03 14:06:32;;;;;;;11.65;6.60;;;8.70;90.10;;;;;;9167987;19;20544;-73
2023/01/03 14:10:03;;;;;;;10.85;6.35;;;8.70;90.10;;;;;;9167540;19;20570;-68
2023/01/03 14:13:32;;;;;;;14.27;5.57;;;8.70;90.10;;;;;;9167460;19;20022;-72
2023/01/03 14:16:46;;;;;;;9.40;5.80;;;8.70;90.10;;;;;;9168431;19;20482;-73
2023/01/03 14:19:52;;;;;;;12.30;5.70;;;8.70;90.10;;;;;;9159751;19;20025;-73
2023/01/03 14:23:00;;;;;;;15.38;6.25;;;8.70;90.10;;;;;;9163248;19;20018;-68
2023/01/03 14:26:26;;;;;;;20.25;5.90;;;8.70;90.10;;;;;;9163639;19;20475;-73
2023/01/03 14:29:30;;;;;;;10.30;6.07;;;8.80;90.10;;;;;;9170634;19;20038;-72
2023/01/03 14:32:36;;;;;;;10.70;6.70;;;8.80;90.30;;;;;;9166558;19;20022;-71
2023/01/03 14:35:41;;;;;;;15.63;6.85;;;8.80;90.20;;;;;;9165261;19;20011;-72
2023/01/03 14:38:48;;;;;;;17.27;6.65;;;8.80;90.10;;;;;;9167361;19;20025;-73
2023/01/03 14:41:57;;;;;;;12.85;6.50;;;8.80;90.10;;;;;;9165670;19;20022;-73
2023/01/03 14:45:03;;;;;;;17.48;7.30;;;8.80;90.10;;;;;;9166905;19;20495;-71
2023/01/03 14:48:08;;;;;;;13.88;6.60;;;8.90;90.10;;;;;;9164349;19;20014;-73
2023/01/03 14:51:13;;;;;;;13.77;6.22;;;8.90;90.10;;;;;;9164420;19;20028;-67
2023/01/03 14:54:20;;;;;;;19.67;6.70;;;8.90;90.10;;;;;;9165709;19;20459;-71
2023/01/03 14:57:28;;;;;;;11.07;6.18;;;8.90;90.10;;;;;;9170503;19;20479;-73
2023/01/03 15:00:36;;;;;;;14.93;6.57;;;8.90;90.10;;;;;;9167971;19;20029;-70
2023/01/03 15:03:43;;;;;;;10.75;6.05;;;8.90;90.10;;;;;;9165194;19;20479;-74
2023/01/03 15:07:02;;;;;;;11.82;6.22;;;9.00;90.10;;;;;;9163398;19;20018;-73
2023/01/03 15:10:19;;;;;;;14.52;6.95;;;9.00;90.10;;;;;;9164878;19;20059;-73
2023/01/03 15:13:29;;;;;;;11.27;5.97;;;9.00;90.10;;;;;;9165528;19;20014;-72
2023/01/03 15:16:36;;;;;;;13.10;6.75;;;9.00;90.10;;;;;;9163281;19;20021;-70
2023/01/03 15:19:47;;;;;;;13.68;6.10;;;9.00;90.10;;;;;;9164628;19;20019;-71
2023/01/03 15:22:52;;;;;;;11.70;5.88;;;9.00;90.00;;;;;;9166942;19;20018;-72
2023/01/03 15:25:56;;;;;;;11.20;5.78;;;8.90;90.00;;;;;;9164189;19;20025;-72
2023/01/03 15:29:12;;;;;;;9.32;5.82;;;8.90;90.00;;;;;;9162698;19;20026;-72
2023/01/03 15:32:20;;;;;;;11.50;5.85;;;8.90;90.00;;;;;;9164160;19;20018;-72
2023/01/03 15:35:31;;;;;;;9.57;5.30;;;8.90;90.00;;;;;;9163581;19;20035;-72
2023/01/03 15:38:37;;;;;;;8.40;4.95;;;8.80;90.00;;;;;;9164088;19;20684;-71
2023/01/03 15:45:23;;;;;;;10.15;4.85;;;8.80;89.90;;;;;;9165430;19;20082;-72
2023/01/03 15:48:27;;;;;;;11.23;5.53;;;8.80;89.90;;;;;;9162340;19;21450;-73
2023/01/03 15:51:31;;;;;;;10.63;5.93;;;8.80;89.90;;;;;;9157183;19;20049;-72
2023/01/03 15:54:35;;;;;;;10.23;6.32;;;8.80;89.90;;;;;;9162471;19;20022;-71
2023/01/03 15:57:39;;;;;;;12.88;5.90;;;8.80;89.90;;;;;;9162796;19;20786;-70
2023/01/03 16:00:45;;;;;;;9.50;5.38;;;8.80;89.90;;;;;;9165821;19;21832;-72
2023/01/03 16:03:50;;;;;;;13.57;6.32;;;8.80;89.90;;;;;;9163881;19;20089;-72
2023/01/03 16:06:54;;;;;;;10.77;6.10;;;8.70;89.80;;;;;;9162978;19;20014;-70
2023/01/03 16:09:58;;;;;;;18.65;6.68;;;8.70;89.80;;;;;;9164705;19;20014;-72
2023/01/03 16:13:02;;;;;;;12.45;6.72;;;8.70;89.80;;;;;;9160747;19;20010;-69
2023/01/03 16:16:09;;;;;;;10.35;6.47;;;8.70;89.80;;;;;;9167102;19;20029;-72
2023/01/03 16:19:19;;;;;;;8.80;5.60;;;8.60;89.70;;;;;;9170059;19;20752;-73
2023/01/03 16:22:24;;;;;;;16.38;6.82;;;8.60;89.70;;;;;;9174508;19;20015;-69
2023/01/03 16:25:39;;;;;;;10.77;5.80;;;8.60;89.70;;;;;;9169843;19;20060;-72
2023/01/03 16:28:43;;;;;;;15.38;7.03;;;8.50;89.70;;;;;;9170737;19;20019;-70
2023/01/03 16:31:51;;;;;;;16.95;6.97;;;8.50;89.70;;;;;;9175804;19;20014;-71
2023/01/03 16:34:57;;;;;;;9.30;5.63;;;8.50;89.70;;;;;;9175919;19;20543;-71
2023/01/03 16:38:01;;;;;;;20.05;6.82;;;8.50;89.70;;;;;;9179627;19;20463;-73
2023/01/03 16:41:05;;;;;;;10.77;5.75;;;8.50;89.70;;;;;;9175649;19;20118;-72
2023/01/03 16:44:08;;;;;;;;;;;8.40;89.60;;;;;;9175465;19;20031;-73
2023/01/03 16:47:17;;;;;;;13.48;5.45;;;8.40;89.70;;;;;;9176977;19;19923;-73
2023/01/03 16:50:21;;;;;;;12.75;5.20;;;8.40;89.60;;;;;;9178856;19;20039;-73
2023/01/03 16:53:32;;;;;;;9.02;4.70;;;8.30;89.70;;;;;;9183216;19;20082;-73
2023/01/03 16:56:36;;;;;;;18.73;5.32;;;8.30;89.70;;;;;;9184193;19;20026;-72
2023/01/03 16:59:40;;;;;;;10.82;5.10;;;8.30;90.10;;;;;;9182737;19;20021;-73
2023/01/03 17:02:46;;;;;;;11.23;4.57;;;8.30;89.70;;;;;;9180690;19;20051;-72
2023/01/03 17:05:51;;;;;;;8.70;5.30;;;8.20;89.70;;;;;;9183234;19;20017;-73
2023/01/03 17:08:56;;;;;;;12.43;6.20;;;8.20;89.70;;;;;;9182685;19;20014;-69
2023/01/03 17:12:04;;;;;;;15.95;5.13;;;8.20;89.70;;;;;;9182103;19;20018;-73
2023/01/03 17:15:10;;;;;;;10.98;5.00;;;8.20;89.80;;;;;;9176836;19;20448;-69
2023/01/03 17:18:21;;;;;;;21.25;5.45;;;8.10;89.70;;;;;;9176152;19;20018;-72
2023/01/03 17:21:26;;;;;;;7.15;4.25;;;8.10;89.70;;;;;;9176699;19;20018;-70
2023/01/03 17:24:30;;;;;;;8.45;4.10;;;8.10;89.70;;;;;;9174609;19;20341;-72
2023/01/03 17:27:34;;;;;;;;;;;8.10;89.70;;;;;;9175385;19;20060;-72
2023/01/03 17:30:38;;;;;;;13.77;4.22;;;8.10;89.70;;;;;;9175894;19;19992;-72